Terminal Aerodrome Forecast
Issued by NWS Cleveland, OH

Home | Current Version | Previous Version | Graphics & Text | Print | Product List | Glossary Off
Versions: 1 2 3 4 5 6 7 8 9 10 11 12 13 14 15 16 17

308
FTUS41 KCLE 260520
TAFCAK
TAF
KCAK 260520Z 2606/2706 30006KT P6SM SCT045
     FM260900 28004KT 6SM BR SCT080
      TEMPO 2609/2613 4SM BR SCT008 BKN080
     FM261400 32006KT P6SM SCT250
     FM270000 34004KT P6SM SCT250=

USA.gov is the U.S. government's official web portal to all federal, state and local government web resources and services.